sensor_id;sensor_type;location;lat;lon;timestamp;P1;durP1;ratioP1;P2;durP2;ratioP2
32611;SDS011;19030;49.478;8.986;2023-09-19T00:01:54;5.20;;;2.58;;
32611;SDS011;19030;49.478;8.986;2023-09-19T00:03:56;7.57;;;2.58;;
32611;SDS011;19030;49.478;8.986;2023-09-19T00:05:58;6.18;;;2.63;;
32611;SDS011;19030;49.478;8.986;2023-09-19T00:08:00;4.18;;;2.42;;
32611;SDS011;19030;49.478;8.986;2023-09-19T00:10:01;3.65;;;2.38;;
32611;SDS011;19030;49.478;8.986;2023-09-19T00:12:05;6.72;;;2.88;;
32611;SDS011;19030;49.478;8.986;2023-09-19T00:14:06;9.45;;;2.50;;
32611;SDS011;19030;49.478;8.986;2023-09-19T00:16:09;2.95;;;2.30;;
32611;SDS011;19030;49.478;8.986;2023-09-19T00:18:10;5.15;;;2.65;;
32611;SDS011;19030;49.478;8.986;2023-09-19T00:20:11;5.28;;;2.50;;
32611;SDS011;19030;49.478;8.986;2023-09-19T00:22:13;6.75;;;2.60;;
32611;SDS011;19030;49.478;8.986;2023-09-19T00:24:15;5.30;;;2.88;;
32611;SDS011;19030;49.478;8.986;2023-09-19T00:26:17;4.75;;;2.70;;
32611;SDS011;19030;49.478;8.986;2023-09-19T00:28:21;4.20;;;2.45;;
32611;SDS011;19030;49.478;8.986;2023-09-19T00:30:22;6.80;;;2.50;;
32611;SDS011;19030;49.478;8.986;2023-09-19T00:32:24;6.03;;;2.80;;
32611;SDS011;19030;49.478;8.986;2023-09-19T00:34:24;7.15;;;2.90;;
32611;SDS011;19030;49.478;8.986;2023-09-19T00:36:25;5.20;;;2.55;;
32611;SDS011;19030;49.478;8.986;2023-09-19T00:38:26;5.15;;;2.40;;
32611;SDS011;19030;49.478;8.986;2023-09-19T00:40:29;4.90;;;2.47;;
32611;SDS011;19030;49.478;8.986;2023-09-19T00:42:31;4.55;;;2.50;;
32611;SDS011;19030;49.478;8.986;2023-09-19T00:44:31;6.50;;;2.70;;
32611;SDS011;19030;49.478;8.986;2023-09-19T00:46:34;7.47;;;2.58;;
32611;SDS011;19030;49.478;8.986;2023-09-19T00:48:39;9.32;;;2.88;;
32611;SDS011;19030;49.478;8.986;2023-09-19T00:50:43;6.50;;;2.65;;
32611;SDS011;19030;49.478;8.986;2023-09-19T00:52:46;4.47;;;2.42;;
32611;SDS011;19030;49.478;8.986;2023-09-19T00:54:48;4.93;;;2.50;;
32611;SDS011;19030;49.478;8.986;2023-09-19T00:56:49;5.43;;;2.70;;
32611;SDS011;19030;49.478;8.986;2023-09-19T00:58:51;5.95;;;2.67;;
32611;SDS011;19030;49.478;8.986;2023-09-19T01:00:51;5.57;;;2.88;;
32611;SDS011;19030;49.478;8.986;2023-09-19T01:02:53;7.78;;;3.15;;
32611;SDS011;19030;49.478;8.986;2023-09-19T01:04:54;6.35;;;2.88;;
32611;SDS011;19030;49.478;8.986;2023-09-19T01:06:55;3.80;;;2.70;;
32611;SDS011;19030;49.478;8.986;2023-09-19T01:08:56;3.97;;;2.58;;
32611;SDS011;19030;49.478;8.986;2023-09-19T01:10:59;7.35;;;3.10;;
32611;SDS011;19030;49.478;8.986;2023-09-19T01:13:29;7.78;;;2.90;;
32611;SDS011;19030;49.478;8.986;2023-09-19T01:23:39;6.13;;;3.50;;
32611;SDS011;19030;49.478;8.986;2023-09-19T01:28:56;5.60;;;3.05;;
32611;SDS011;19030;49.478;8.986;2023-09-19T01:31:21;7.10;;;3.20;;
32611;SDS011;19030;49.478;8.986;2023-09-19T01:33:23;5.43;;;2.90;;
32611;SDS011;19030;49.478;8.986;2023-09-19T01:35:25;9.82;;;3.30;;
32611;SDS011;19030;49.478;8.986;2023-09-19T01:37:26;6.07;;;2.85;;
32611;SDS011;19030;49.478;8.986;2023-09-19T01:39:27;7.68;;;3.20;;
32611;SDS011;19030;49.478;8.986;2023-09-19T01:41:30;7.10;;;3.03;;
32611;SDS011;19030;49.478;8.986;2023-09-19T01:43:42;6.57;;;2.88;;
32611;SDS011;19030;49.478;8.986;2023-09-19T01:47:51;8.27;;;3.38;;
32611;SDS011;19030;49.478;8.986;2023-09-19T01:49:58;5.93;;;3.65;;
32611;SDS011;19030;49.478;8.986;2023-09-19T01:52:09;7.20;;;3.65;;
32611;SDS011;19030;49.478;8.986;2023-09-19T01:54:16;8.68;;;3.70;;
32611;SDS011;19030;49.478;8.986;2023-09-19T01:56:50;6.60;;;3.65;;
32611;SDS011;19030;49.478;8.986;2023-09-19T01:58:53;6.40;;;4.20;;
32611;SDS011;19030;49.478;8.986;2023-09-19T02:01:00;6.05;;;4.07;;
32611;SDS011;19030;49.478;8.986;2023-09-19T02:03:01;7.15;;;4.22;;
32611;SDS011;19030;49.478;8.986;2023-09-19T02:05:03;9.45;;;4.28;;
32611;SDS011;19030;49.478;8.986;2023-09-19T02:07:07;7.18;;;4.35;;
32611;SDS011;19030;49.478;8.986;2023-09-19T02:09:08;8.10;;;5.50;;
32611;SDS011;19030;49.478;8.986;2023-09-19T02:11:09;8.10;;;4.43;;
32611;SDS011;19030;49.478;8.986;2023-09-19T02:13:09;6.38;;;4.28;;
32611;SDS011;19030;49.478;8.986;2023-09-19T02:15:10;6.97;;;4.05;;
32611;SDS011;19030;49.478;8.986;2023-09-19T02:17:11;8.15;;;5.55;;
32611;SDS011;19030;49.478;8.986;2023-09-19T02:19:12;7.75;;;4.10;;
32611;SDS011;19030;49.478;8.986;2023-09-19T02:21:13;5.45;;;4.13;;
32611;SDS011;19030;49.478;8.986;2023-09-19T02:23:14;7.22;;;4.15;;
32611;SDS011;19030;49.478;8.986;2023-09-19T02:25:15;7.18;;;4.13;;
32611;SDS011;19030;49.478;8.986;2023-09-19T02:27:16;6.93;;;3.90;;
32611;SDS011;19030;49.478;8.986;2023-09-19T02:29:17;8.13;;;4.10;;
32611;SDS011;19030;49.478;8.986;2023-09-19T02:31:18;6.75;;;4.13;;
32611;SDS011;19030;49.478;8.986;2023-09-19T02:33:19;12.85;;;4.57;;
32611;SDS011;19030;49.478;8.986;2023-09-19T02:35:20;8.70;;;4.70;;
32611;SDS011;19030;49.478;8.986;2023-09-19T02:37:21;6.82;;;4.40;;
32611;SDS011;19030;49.478;8.986;2023-09-19T02:39:22;7.78;;;4.35;;
32611;SDS011;19030;49.478;8.986;2023-09-19T02:41:23;6.40;;;4.15;;
32611;SDS011;19030;49.478;8.986;2023-09-19T02:43:24;6.68;;;4.55;;
32611;SDS011;19030;49.478;8.986;2023-09-19T02:45:24;6.05;;;4.40;;
32611;SDS011;19030;49.478;8.986;2023-09-19T02:47:25;8.85;;;4.18;;
32611;SDS011;19030;49.478;8.986;2023-09-19T02:49:27;6.32;;;4.43;;
32611;SDS011;19030;49.478;8.986;2023-09-19T02:51:27;10.20;;;4.40;;
32611;SDS011;19030;49.478;8.986;2023-09-19T02:53:28;8.73;;;4.43;;
32611;SDS011;19030;49.478;8.986;2023-09-19T02:55:30;6.13;;;3.80;;
32611;SDS011;19030;49.478;8.986;2023-09-19T02:57:31;8.30;;;3.97;;
32611;SDS011;19030;49.478;8.986;2023-09-19T02:59:33;6.57;;;3.80;;
32611;SDS011;19030;49.478;8.986;2023-09-19T03:01:36;9.30;;;4.40;;
32611;SDS011;19030;49.478;8.986;2023-09-19T03:03:38;7.65;;;4.28;;
32611;SDS011;19030;49.478;8.986;2023-09-19T03:05:39;6.35;;;4.45;;
32611;SDS011;19030;49.478;8.986;2023-09-19T03:07:40;7.20;;;4.90;;
32611;SDS011;19030;49.478;8.986;2023-09-19T03:09:43;6.22;;;4.30;;
32611;SDS011;19030;49.478;8.986;2023-09-19T03:11:44;6.65;;;4.45;;
32611;SDS011;19030;49.478;8.986;2023-09-19T03:13:50;11.85;;;4.88;;
32611;SDS011;19030;49.478;8.986;2023-09-19T03:15:54;7.20;;;4.60;;
32611;SDS011;19030;49.478;8.986;2023-09-19T03:17:59;7.03;;;4.40;;
32611;SDS011;19030;49.478;8.986;2023-09-19T03:19:59;6.32;;;3.95;;
32611;SDS011;19030;49.478;8.986;2023-09-19T03:22:00;5.45;;;4.43;;
32611;SDS011;19030;49.478;8.986;2023-09-19T03:24:03;8.60;;;4.65;;
32611;SDS011;19030;49.478;8.986;2023-09-19T03:26:04;6.45;;;4.80;;
32611;SDS011;19030;49.478;8.986;2023-09-19T03:28:06;8.88;;;4.60;;
32611;SDS011;19030;49.478;8.986;2023-09-19T03:30:07;7.18;;;4.10;;
32611;SDS011;19030;49.478;8.986;2023-09-19T03:32:09;10.38;;;4.70;;
32611;SDS011;19030;49.478;8.986;2023-09-19T03:34:11;9.93;;;4.60;;
32611;SDS011;19030;49.478;8.986;2023-09-19T03:36:11;8.55;;;4.47;;
32611;SDS011;19030;49.478;8.986;2023-09-19T03:38:14;6.60;;;4.70;;
32611;SDS011;19030;49.478;8.986;2023-09-19T03:40:14;6.95;;;4.60;;
32611;SDS011;19030;49.478;8.986;2023-09-19T03:42:16;13.20;;;6.45;;
32611;SDS011;19030;49.478;8.986;2023-09-19T03:44:17;7.40;;;4.88;;
32611;SDS011;19030;49.478;8.986;2023-09-19T03:46:17;7.88;;;4.97;;
32611;SDS011;19030;49.478;8.986;2023-09-19T03:48:18;8.40;;;4.82;;
32611;SDS011;19030;49.478;8.986;2023-09-19T03:50:19;6.07;;;4.53;;
32611;SDS011;19030;49.478;8.986;2023-09-19T03:52:20;5.70;;;4.40;;
32611;SDS011;19030;49.478;8.986;2023-09-19T03:54:21;9.32;;;5.00;;
32611;SDS011;19030;49.478;8.986;2023-09-19T03:56:21;7.50;;;5.35;;
32611;SDS011;19030;49.478;8.986;2023-09-19T03:58:22;8.75;;;5.15;;
32611;SDS011;19030;49.478;8.986;2023-09-19T04:00:22;9.23;;;5.00;;
32611;SDS011;19030;49.478;8.986;2023-09-19T04:02:26;10.27;;;5.85;;
32611;SDS011;19030;49.478;8.986;2023-09-19T04:04:32;8.85;;;5.40;;
32611;SDS011;19030;49.478;8.986;2023-09-19T04:06:33;7.43;;;5.10;;
32611;SDS011;19030;49.478;8.986;2023-09-19T04:08:37;7.97;;;5.32;;
32611;SDS011;19030;49.478;8.986;2023-09-19T04:10:38;9.93;;;5.72;;
32611;SDS011;19030;49.478;8.986;2023-09-19T04:12:38;8.93;;;5.95;;
32611;SDS011;19030;49.478;8.986;2023-09-19T04:14:39;8.77;;;5.70;;
32611;SDS011;19030;49.478;8.986;2023-09-19T04:16:40;7.72;;;5.75;;
32611;SDS011;19030;49.478;8.986;2023-09-19T04:18:40;10.02;;;5.38;;
32611;SDS011;19030;49.478;8.986;2023-09-19T04:20:47;10.55;;;6.45;;
32611;SDS011;19030;49.478;8.986;2023-09-19T04:22:51;12.73;;;7.93;;
32611;SDS011;19030;49.478;8.986;2023-09-19T04:24:52;8.25;;;5.78;;
32611;SDS011;19030;49.478;8.986;2023-09-19T04:26:52;8.60;;;5.53;;
32611;SDS011;19030;49.478;8.986;2023-09-19T04:28:53;7.68;;;5.82;;
32611;SDS011;19030;49.478;8.986;2023-09-19T04:30:53;11.02;;;5.95;;
32611;SDS011;19030;49.478;8.986;2023-09-19T04:32:55;7.22;;;5.68;;
32611;SDS011;19030;49.478;8.986;2023-09-19T04:34:55;8.20;;;6.00;;
32611;SDS011;19030;49.478;8.986;2023-09-19T04:37:00;11.85;;;6.30;;
32611;SDS011;19030;49.478;8.986;2023-09-19T04:39:02;7.05;;;5.88;;
32611;SDS011;19030;49.478;8.986;2023-09-19T04:41:07;9.82;;;5.88;;
32611;SDS011;19030;49.478;8.986;2023-09-19T04:43:07;9.38;;;5.65;;
32611;SDS011;19030;49.478;8.986;2023-09-19T04:45:08;8.57;;;6.30;;
32611;SDS011;19030;49.478;8.986;2023-09-19T04:47:10;9.13;;;5.80;;
32611;SDS011;19030;49.478;8.986;2023-09-19T04:49:12;9.98;;;6.13;;
32611;SDS011;19030;49.478;8.986;2023-09-19T04:51:13;7.63;;;5.63;;
32611;SDS011;19030;49.478;8.986;2023-09-19T04:53:15;9.65;;;6.18;;
32611;SDS011;19030;49.478;8.986;2023-09-19T04:55:16;9.02;;;6.07;;
32611;SDS011;19030;49.478;8.986;2023-09-19T04:57:17;8.00;;;5.60;;
32611;SDS011;19030;49.478;8.986;2023-09-19T04:59:18;10.50;;;6.07;;
32611;SDS011;19030;49.478;8.986;2023-09-19T05:01:18;9.75;;;6.10;;
32611;SDS011;19030;49.478;8.986;2023-09-19T05:03:23;10.90;;;5.82;;
32611;SDS011;19030;49.478;8.986;2023-09-19T05:05:23;9.48;;;5.80;;
32611;SDS011;19030;49.478;8.986;2023-09-19T05:07:25;8.70;;;5.72;;
32611;SDS011;19030;49.478;8.986;2023-09-19T05:09:26;8.25;;;6.15;;
32611;SDS011;19030;49.478;8.986;2023-09-19T05:11:26;11.90;;;6.28;;
32611;SDS011;19030;49.478;8.986;2023-09-19T05:13:29;8.43;;;6.28;;
32611;SDS011;19030;49.478;8.986;2023-09-19T05:15:30;8.75;;;6.20;;
32611;SDS011;19030;49.478;8.986;2023-09-19T05:17:31;12.65;;;6.38;;
32611;SDS011;19030;49.478;8.986;2023-09-19T05:19:32;8.88;;;6.35;;
32611;SDS011;19030;49.478;8.986;2023-09-19T05:21:34;9.80;;;6.00;;
32611;SDS011;19030;49.478;8.986;2023-09-19T05:23:34;10.25;;;5.65;;
32611;SDS011;19030;49.478;8.986;2023-09-19T05:25:35;9.02;;;6.13;;
32611;SDS011;19030;49.478;8.986;2023-09-19T05:27:39;10.00;;;5.95;;
32611;SDS011;19030;49.478;8.986;2023-09-19T05:29:40;8.73;;;6.05;;
32611;SDS011;19030;49.478;8.986;2023-09-19T05:31:42;9.45;;;6.45;;
32611;SDS011;19030;49.478;8.986;2023-09-19T05:33:43;10.18;;;5.95;;
32611;SDS011;19030;49.478;8.986;2023-09-19T05:35:43;8.02;;;6.45;;
32611;SDS011;19030;49.478;8.986;2023-09-19T05:37:45;13.15;;;5.95;;
32611;SDS011;19030;49.478;8.986;2023-09-19T05:39:46;12.90;;;5.50;;
32611;SDS011;19030;49.478;8.986;2023-09-19T05:41:47;9.07;;;6.07;;
32611;SDS011;19030;49.478;8.986;2023-09-19T05:43:49;10.40;;;6.15;;
32611;SDS011;19030;49.478;8.986;2023-09-19T05:45:50;8.45;;;5.80;;
32611;SDS011;19030;49.478;8.986;2023-09-19T05:47:52;10.50;;;6.43;;
32611;SDS011;19030;49.478;8.986;2023-09-19T05:49:55;8.85;;;6.10;;
32611;SDS011;19030;49.478;8.986;2023-09-19T05:51:56;9.27;;;6.82;;
32611;SDS011;19030;49.478;8.986;2023-09-19T05:53:59;10.52;;;5.90;;
32611;SDS011;19030;49.478;8.986;2023-09-19T05:55:59;8.95;;;5.30;;
32611;SDS011;19030;49.478;8.986;2023-09-19T05:58:01;11.57;;;5.53;;
32611;SDS011;19030;49.478;8.986;2023-09-19T06:00:03;6.47;;;4.97;;
32611;SDS011;19030;49.478;8.986;2023-09-19T06:02:12;7.43;;;4.72;;
32611;SDS011;19030;49.478;8.986;2023-09-19T06:04:12;10.52;;;5.53;;
32611;SDS011;19030;49.478;8.986;2023-09-19T06:06:13;9.88;;;5.60;;
32611;SDS011;19030;49.478;8.986;2023-09-19T06:10:14;12.63;;;5.50;;
32611;SDS011;19030;49.478;8.986;2023-09-19T06:12:15;9.13;;;5.30;;
32611;SDS011;19030;49.478;8.986;2023-09-19T06:14:17;7.82;;;5.18;;
32611;SDS011;19030;49.478;8.986;2023-09-19T06:16:17;9.20;;;5.18;;
32611;SDS011;19030;49.478;8.986;2023-09-19T06:18:19;9.18;;;5.18;;
32611;SDS011;19030;49.478;8.986;2023-09-19T06:20:20;6.22;;;5.03;;
32611;SDS011;19030;49.478;8.986;2023-09-19T06:22:23;7.93;;;5.30;;
32611;SDS011;19030;49.478;8.986;2023-09-19T06:24:24;9.15;;;5.40;;
32611;SDS011;19030;49.478;8.986;2023-09-19T06:26:25;9.68;;;5.43;;
32611;SDS011;19030;49.478;8.986;2023-09-19T06:28:27;7.40;;;5.15;;
32611;SDS011;19030;49.478;8.986;2023-09-19T06:30:28;8.98;;;5.00;;
32611;SDS011;19030;49.478;8.986;2023-09-19T06:32:29;7.82;;;5.18;;
32611;SDS011;19030;49.478;8.986;2023-09-19T06:34:30;6.97;;;5.20;;
32611;SDS011;19030;49.478;8.986;2023-09-19T06:36:30;7.03;;;5.10;;
32611;SDS011;19030;49.478;8.986;2023-09-19T06:38:31;12.05;;;5.57;;
32611;SDS011;19030;49.478;8.986;2023-09-19T06:40:34;9.35;;;5.15;;
32611;SDS011;19030;49.478;8.986;2023-09-19T06:42:35;7.25;;;5.22;;
32611;SDS011;19030;49.478;8.986;2023-09-19T06:44:37;8.55;;;5.72;;
32611;SDS011;19030;49.478;8.986;2023-09-19T06:46:37;9.90;;;5.63;;
32611;SDS011;19030;49.478;8.986;2023-09-19T06:48:40;7.35;;;5.50;;
32611;SDS011;19030;49.478;8.986;2023-09-19T06:50:44;7.80;;;5.80;;
32611;SDS011;19030;49.478;8.986;2023-09-19T06:52:44;10.68;;;5.70;;
32611;SDS011;19030;49.478;8.986;2023-09-19T06:54:49;9.43;;;6.07;;
32611;SDS011;19030;49.478;8.986;2023-09-19T06:56:52;8.10;;;4.75;;
32611;SDS011;19030;49.478;8.986;2023-09-19T06:58:52;7.72;;;6.00;;
32611;SDS011;19030;49.478;8.986;2023-09-19T07:00:53;11.43;;;6.50;;
32611;SDS011;19030;49.478;8.986;2023-09-19T07:02:54;7.93;;;4.32;;
32611;SDS011;19030;49.478;8.986;2023-09-19T07:04:55;9.77;;;6.00;;
32611;SDS011;19030;49.478;8.986;2023-09-19T07:06:55;9.13;;;5.88;;
32611;SDS011;19030;49.478;8.986;2023-09-19T07:08:56;7.30;;;5.57;;
32611;SDS011;19030;49.478;8.986;2023-09-19T07:10:57;13.07;;;5.82;;
32611;SDS011;19030;49.478;8.986;2023-09-19T07:12:58;8.07;;;5.28;;
32611;SDS011;19030;49.478;8.986;2023-09-19T07:14:58;10.32;;;5.90;;
32611;SDS011;19030;49.478;8.986;2023-09-19T07:17:00;7.75;;;5.95;;
32611;SDS011;19030;49.478;8.986;2023-09-19T07:19:00;9.82;;;5.32;;
32611;SDS011;19030;49.478;8.986;2023-09-19T07:21:02;8.50;;;5.22;;
32611;SDS011;19030;49.478;8.986;2023-09-19T07:23:04;8.48;;;5.15;;
32611;SDS011;19030;49.478;8.986;2023-09-19T07:25:06;9.77;;;5.40;;
32611;SDS011;19030;49.478;8.986;2023-09-19T07:27:07;11.10;;;5.30;;
32611;SDS011;19030;49.478;8.986;2023-09-19T07:29:08;8.70;;;5.20;;
32611;SDS011;19030;49.478;8.986;2023-09-19T07:31:09;8.25;;;5.40;;
32611;SDS011;19030;49.478;8.986;2023-09-19T07:33:10;13.50;;;5.15;;
32611;SDS011;19030;49.478;8.986;2023-09-19T07:35:11;6.75;;;4.75;;
32611;SDS011;19030;49.478;8.986;2023-09-19T07:37:12;7.85;;;5.00;;
32611;SDS011;19030;49.478;8.986;2023-09-19T07:39:14;10.00;;;4.90;;
32611;SDS011;19030;49.478;8.986;2023-09-19T07:41:15;10.18;;;5.28;;
32611;SDS011;19030;49.478;8.986;2023-09-19T07:43:15;9.48;;;5.30;;
32611;SDS011;19030;49.478;8.986;2023-09-19T07:45:18;9.63;;;5.50;;
32611;SDS011;19030;49.478;8.986;2023-09-19T07:47:18;7.40;;;5.20;;
32611;SDS011;19030;49.478;8.986;2023-09-19T07:49:21;8.40;;;4.20;;
32611;SDS011;19030;49.478;8.986;2023-09-19T07:51:21;8.90;;;6.15;;
32611;SDS011;19030;49.478;8.986;2023-09-19T07:53:22;7.70;;;4.88;;
32611;SDS011;19030;49.478;8.986;2023-09-19T07:55:22;9.05;;;6.07;;
32611;SDS011;19030;49.478;8.986;2023-09-19T07:57:25;11.45;;;5.60;;
32611;SDS011;19030;49.478;8.986;2023-09-19T07:59:26;8.25;;;5.63;;
32611;SDS011;19030;49.478;8.986;2023-09-19T08:01:26;8.90;;;5.50;;
32611;SDS011;19030;49.478;8.986;2023-09-19T08:03:27;8.63;;;5.20;;
32611;SDS011;19030;49.478;8.986;2023-09-19T08:05:28;6.63;;;3.67;;
32611;SDS011;19030;49.478;8.986;2023-09-19T08:07:28;7.20;;;4.60;;
32611;SDS011;19030;49.478;8.986;2023-09-19T08:09:29;10.02;;;4.80;;
32611;SDS011;19030;49.478;8.986;2023-09-19T08:11:33;8.10;;;5.35;;
32611;SDS011;19030;49.478;8.986;2023-09-19T08:13:33;7.47;;;4.93;;
32611;SDS011;19030;49.478;8.986;2023-09-19T08:15:34;10.10;;;5.55;;
32611;SDS011;19030;49.478;8.986;2023-09-19T08:17:34;7.57;;;4.78;;
32611;SDS011;19030;49.478;8.986;2023-09-19T08:19:35;9.13;;;5.80;;
32611;SDS011;19030;49.478;8.986;2023-09-19T08:21:36;8.55;;;5.50;;
32611;SDS011;19030;49.478;8.986;2023-09-19T08:23:37;7.63;;;5.15;;
32611;SDS011;19030;49.478;8.986;2023-09-19T08:25:40;6.82;;;4.57;;
32611;SDS011;19030;49.478;8.986;2023-09-19T08:27:41;8.95;;;6.00;;
32611;SDS011;19030;49.478;8.986;2023-09-19T08:29:43;5.88;;;4.57;;
32611;SDS011;19030;49.478;8.986;2023-09-19T08:31:44;10.15;;;5.80;;
32611;SDS011;19030;49.478;8.986;2023-09-19T08:33:45;9.30;;;5.63;;
32611;SDS011;19030;49.478;8.986;2023-09-19T08:35:49;8.77;;;6.10;;
32611;SDS011;19030;49.478;8.986;2023-09-19T08:37:49;7.80;;;5.80;;
32611;SDS011;19030;49.478;8.986;2023-09-19T08:39:51;9.23;;;5.47;;
32611;SDS011;19030;49.478;8.986;2023-09-19T08:41:58;10.90;;;4.47;;
32611;SDS011;19030;49.478;8.986;2023-09-19T08:43:59;7.15;;;5.70;;
32611;SDS011;19030;49.478;8.986;2023-09-19T08:46:10;9.55;;;6.05;;
32611;SDS011;19030;49.478;8.986;2023-09-19T08:48:28;8.88;;;4.72;;
32611;SDS011;19030;49.478;8.986;2023-09-19T08:50:30;11.82;;;5.15;;
32611;SDS011;19030;49.478;8.986;2023-09-19T08:52:37;7.53;;;5.10;;
32611;SDS011;19030;49.478;8.986;2023-09-19T08:54:42;9.30;;;3.60;;
32611;SDS011;19030;49.478;8.986;2023-09-19T08:56:44;8.68;;;5.85;;
32611;SDS011;19030;49.478;8.986;2023-09-19T08:58:50;7.55;;;4.82;;
32611;SDS011;19030;49.478;8.986;2023-09-19T09:00:54;6.68;;;4.68;;
32611;SDS011;19030;49.478;8.986;2023-09-19T09:02:57;8.40;;;4.70;;
32611;SDS011;19030;49.478;8.986;2023-09-19T09:04:58;9.68;;;5.53;;
32611;SDS011;19030;49.478;8.986;2023-09-19T09:07:00;8.77;;;4.35;;
32611;SDS011;19030;49.478;8.986;2023-09-19T09:09:03;6.60;;;4.20;;
32611;SDS011;19030;49.478;8.986;2023-09-19T09:11:04;7.63;;;5.10;;
32611;SDS011;19030;49.478;8.986;2023-09-19T09:13:08;10.05;;;5.03;;
32611;SDS011;19030;49.478;8.986;2023-09-19T09:15:10;9.93;;;5.60;;
32611;SDS011;19030;49.478;8.986;2023-09-19T09:17:16;7.53;;;3.33;;
32611;SDS011;19030;49.478;8.986;2023-09-19T09:19:20;10.65;;;5.00;;
32611;SDS011;19030;49.478;8.986;2023-09-19T09:21:25;4.85;;;2.90;;
32611;SDS011;19030;49.478;8.986;2023-09-19T09:23:28;5.95;;;3.78;;
32611;SDS011;19030;49.478;8.986;2023-09-19T09:28:02;8.15;;;5.03;;
32611;SDS011;19030;49.478;8.986;2023-09-19T09:30:03;11.75;;;5.20;;
32611;SDS011;19030;49.478;8.986;2023-09-19T09:32:16;12.30;;;5.32;;
32611;SDS011;19030;49.478;8.986;2023-09-19T09:34:19;8.40;;;3.78;;
32611;SDS011;19030;49.478;8.986;2023-09-19T09:36:42;8.90;;;4.35;;
32611;SDS011;19030;49.478;8.986;2023-09-19T09:38:43;7.47;;;3.95;;
32611;SDS011;19030;49.478;8.986;2023-09-19T09:40:46;9.13;;;4.03;;
32611;SDS011;19030;49.478;8.986;2023-09-19T09:42:59;6.38;;;4.53;;
32611;SDS011;19030;49.478;8.986;2023-09-19T09:47:43;6.65;;;4.00;;
32611;SDS011;19030;49.478;8.986;2023-09-19T09:49:55;10.02;;;4.25;;
32611;SDS011;19030;49.478;8.986;2023-09-19T09:52:07;7.40;;;4.15;;
32611;SDS011;19030;49.478;8.986;2023-09-19T09:54:16;8.38;;;4.95;;
32611;SDS011;19030;49.478;8.986;2023-09-19T09:56:19;10.07;;;4.60;;
32611;SDS011;19030;49.478;8.986;2023-09-19T09:58:20;8.25;;;4.30;;
32611;SDS011;19030;49.478;8.986;2023-09-19T10:00:24;6.63;;;4.50;;
32611;SDS011;19030;49.478;8.986;2023-09-19T10:02:34;8.20;;;3.97;;
32611;SDS011;19030;49.478;8.986;2023-09-19T10:04:40;7.05;;;4.63;;
32611;SDS011;19030;49.478;8.986;2023-09-19T10:06:51;8.27;;;4.00;;
32611;SDS011;19030;49.478;8.986;2023-09-19T10:11:15;10.55;;;4.00;;
32611;SDS011;19030;49.478;8.986;2023-09-19T10:13:16;7.80;;;4.10;;
32611;SDS011;19030;49.478;8.986;2023-09-19T10:15:21;8.23;;;3.85;;
32611;SDS011;19030;49.478;8.986;2023-09-19T10:17:26;6.05;;;4.10;;
32611;SDS011;19030;49.478;8.986;2023-09-19T10:21:50;7.07;;;3.80;;
32611;SDS011;19030;49.478;8.986;2023-09-19T10:23:57;6.70;;;4.05;;
32611;SDS011;19030;49.478;8.986;2023-09-19T10:25:59;8.85;;;4.25;;
32611;SDS011;19030;49.478;8.986;2023-09-19T10:28:01;10.02;;;4.10;;
32611;SDS011;19030;49.478;8.986;2023-09-19T10:30:04;6.82;;;4.35;;
32611;SDS011;19030;49.478;8.986;2023-09-19T10:32:08;7.80;;;4.10;;
32611;SDS011;19030;49.478;8.986;2023-09-19T10:34:11;8.50;;;4.30;;
32611;SDS011;19030;49.478;8.986;2023-09-19T10:36:11;7.78;;;4.90;;
32611;SDS011;19030;49.478;8.986;2023-09-19T10:38:14;5.97;;;3.80;;
32611;SDS011;19030;49.478;8.986;2023-09-19T10:40:19;7.15;;;4.25;;
32611;SDS011;19030;49.478;8.986;2023-09-19T10:42:21;7.57;;;4.00;;
32611;SDS011;19030;49.478;8.986;2023-09-19T10:44:27;8.07;;;4.82;;
32611;SDS011;19030;49.478;8.986;2023-09-19T10:46:32;7.35;;;5.55;;
32611;SDS011;19030;49.478;8.986;2023-09-19T10:48:33;5.72;;;3.53;;
32611;SDS011;19030;49.478;8.986;2023-09-19T10:50:44;6.38;;;4.00;;
32611;SDS011;19030;49.478;8.986;2023-09-19T10:52:51;9.48;;;4.63;;
32611;SDS011;19030;49.478;8.986;2023-09-19T10:54:58;5.85;;;3.85;;
32611;SDS011;19030;49.478;8.986;2023-09-19T10:57:01;8.27;;;4.03;;
32611;SDS011;19030;49.478;8.986;2023-09-19T10:59:06;6.55;;;3.83;;
32611;SDS011;19030;49.478;8.986;2023-09-19T11:01:07;6.28;;;3.75;;
32611;SDS011;19030;49.478;8.986;2023-09-19T11:03:18;5.40;;;3.95;;
32611;SDS011;19030;49.478;8.986;2023-09-19T11:05:20;6.03;;;3.63;;
32611;SDS011;19030;49.478;8.986;2023-09-19T11:07:21;9.85;;;4.90;;
32611;SDS011;19030;49.478;8.986;2023-09-19T11:09:22;6.57;;;4.18;;
32611;SDS011;19030;49.478;8.986;2023-09-19T11:13:43;7.22;;;4.50;;
32611;SDS011;19030;49.478;8.986;2023-09-19T11:17:59;9.20;;;4.38;;
32611;SDS011;19030;49.478;8.986;2023-09-19T11:22:12;6.85;;;4.40;;
32611;SDS011;19030;49.478;8.986;2023-09-19T11:26:39;7.43;;;4.10;;
32611;SDS011;19030;49.478;8.986;2023-09-19T11:28:47;8.40;;;4.38;;
32611;SDS011;19030;49.478;8.986;2023-09-19T11:30:49;6.72;;;4.10;;
32611;SDS011;19030;49.478;8.986;2023-09-19T11:33:15;6.90;;;4.03;;
32611;SDS011;19030;49.478;8.986;2023-09-19T11:35:59;6.30;;;3.60;;
32611;SDS011;19030;49.478;8.986;2023-09-19T11:38:12;5.63;;;4.40;;
32611;SDS011;19030;49.478;8.986;2023-09-19T11:40:15;8.98;;;4.43;;
32611;SDS011;19030;49.478;8.986;2023-09-19T11:44:45;7.85;;;3.53;;
32611;SDS011;19030;49.478;8.986;2023-09-19T11:48:53;6.68;;;3.53;;
32611;SDS011;19030;49.478;8.986;2023-09-19T11:50:54;5.85;;;3.72;;
32611;SDS011;19030;49.478;8.986;2023-09-19T11:52:57;11.38;;;3.85;;
32611;SDS011;19030;49.478;8.986;2023-09-19T11:54:58;8.65;;;4.22;;
32611;SDS011;19030;49.478;8.986;2023-09-19T11:57:01;6.60;;;3.60;;
32611;SDS011;19030;49.478;8.986;2023-09-19T11:59:03;7.60;;;3.97;;
32611;SDS011;19030;49.478;8.986;2023-09-19T12:01:03;7.18;;;4.25;;
32611;SDS011;19030;49.478;8.986;2023-09-19T12:03:09;7.03;;;4.20;;
32611;SDS011;19030;49.478;8.986;2023-09-19T12:05:11;4.43;;;3.42;;
32611;SDS011;19030;49.478;8.986;2023-09-19T12:07:13;6.72;;;3.63;;
32611;SDS011;19030;49.478;8.986;2023-09-19T12:09:19;7.13;;;4.15;;
32611;SDS011;19030;49.478;8.986;2023-09-19T12:11:21;6.47;;;3.60;;
32611;SDS011;19030;49.478;8.986;2023-09-19T12:13:23;10.57;;;4.20;;
32611;SDS011;19030;49.478;8.986;2023-09-19T12:15:24;9.25;;;4.20;;
32611;SDS011;19030;49.478;8.986;2023-09-19T12:19:55;7.38;;;3.78;;
32611;SDS011;19030;49.478;8.986;2023-09-19T12:21:57;6.28;;;3.83;;
32611;SDS011;19030;49.478;8.986;2023-09-19T12:26:06;7.40;;;3.60;;
32611;SDS011;19030;49.478;8.986;2023-09-19T12:30:13;6.75;;;3.63;;
32611;SDS011;19030;49.478;8.986;2023-09-19T12:32:17;5.30;;;3.67;;
32611;SDS011;19030;49.478;8.986;2023-09-19T12:34:21;7.07;;;3.75;;
32611;SDS011;19030;49.478;8.986;2023-09-19T12:36:23;8.52;;;3.88;;
32611;SDS011;19030;49.478;8.986;2023-09-19T12:38:25;8.23;;;3.60;;
32611;SDS011;19030;49.478;8.986;2023-09-19T12:40:32;5.82;;;3.70;;
32611;SDS011;19030;49.478;8.986;2023-09-19T12:42:36;7.32;;;3.45;;
32611;SDS011;19030;49.478;8.986;2023-09-19T12:44:37;7.18;;;3.70;;
32611;SDS011;19030;49.478;8.986;2023-09-19T12:46:41;15.30;;;5.88;;
32611;SDS011;19030;49.478;8.986;2023-09-19T12:48:42;8.15;;;4.15;;
32611;SDS011;19030;49.478;8.986;2023-09-19T12:51:03;7.10;;;3.10;;
32611;SDS011;19030;49.478;8.986;2023-09-19T12:53:08;7.70;;;3.67;;
32611;SDS011;19030;49.478;8.986;2023-09-19T12:55:26;7.78;;;3.58;;
32611;SDS011;19030;49.478;8.986;2023-09-19T12:57:28;6.50;;;3.22;;
32611;SDS011;19030;49.478;8.986;2023-09-19T12:59:31;7.38;;;3.72;;
32611;SDS011;19030;49.478;8.986;2023-09-19T13:01:33;8.00;;;3.17;;
32611;SDS011;19030;49.478;8.986;2023-09-19T13:03:40;7.90;;;3.70;;
32611;SDS011;19030;49.478;8.986;2023-09-19T13:05:50;7.70;;;3.05;;